Pendleton, SC (29670)

6:35 PM EDT on March 29, 2015 (GMT -0400)
Clemson University Extension Bull Test | | Change Station
CLOSE
Current Station
Personal Weather Station
Location: Pendleton, SC
Elevation: 794 ft
Nearby Weather Stations

Elev 794 ft 34.67 °N, 82.73 °W | Updated 5 seconds ago

Clear
Clear
54.3 °F
Feels Like 54.3 °F
N
0.0
Wind Variable Wind from NNE
Gusts 0.0 mph

Today
High -- | Low -- °F
--% Chance of Precip.
Yesterday
High -- | Low -- °F
Precip. -- in
7:22 AM 7:49 PM
Waxing Gibbous, 74% visible
Pressure 30.27 in
Visibility 10.0 miles
Clouds Clear
Dew Point 23 °F
Humidity 29%
Rainfall 0.00 in
Snow Depth Not available.
UV 2 out of 12
Pollen 8.60 out of 12
Air Quality Not available.
Flu Activity Not available.
METAR KCEU 292154Z AUTO VRB05KT 10SM CLR 14/M10 A3027 RMK AO2 SLP250 T01391100

More Conditions Fewer Conditions

Pressure 30.27 in
Visibility 10.0 miles
Clouds Clear
Dew Point 23 °F
Humidity 29%
Rainfall 0.00 in
Snow Depth Not available.
UV 2 out of 12
Pollen 8.60 out of 12
Air Quality Not available.
Flu Activity Not available.
METAR KCEU 292154Z AUTO VRB05KT 10SM CLR 14/M10 A3027 RMK AO2 SLP250 T01391100

More Conditions Fewer Conditions

10-Day Weather Forecast

Almanac

Astronomy

Mar. 29, 2015 Rise Set
Actual Time
Civil Twilight
Nautical Twilight
Astronomical Twilight
Moon
Length of Visible Light
Length of Day
Tomorrow will be .
, % of the Moon is Illuminated

Today's Extremes

State Highs State Lows

Community

WunderPhotos

Upload Photos

1,809,376 photos uploaded!

WunderBlogs® & News

Nearby

Air Quality

  Air Quality AQ Index Pollutant
Not available.

Snow Depth

Station Depth Elevation

Earthquake Activity

City Distance Mag. Time & Date
Minimum magnitude displayed is 2.5.

Coastal Water Temperatures

Place Temperature

Stations

Nearby Weather Stations

Station Location Temp. Windchill Dew Point Humidity Wind Precip. Elev Updated Type